createdAt,value
2023-03-29T00:00:49.619Z,100.00
2023-03-29T00:03:17.057Z,100.00
2023-03-29T00:05:44.766Z,100.00
2023-03-29T00:08:14.381Z,100.00
2023-03-29T00:10:41.793Z,100.00
2023-03-29T00:13:08.367Z,100.00
2023-03-29T00:15:34.710Z,100.00
2023-03-29T00:18:01.206Z,100.00
2023-03-29T00:20:28.732Z,100.00
2023-03-29T00:22:55.686Z,100.00
2023-03-29T00:25:22.217Z,100.00
2023-03-29T00:27:48.784Z,100.00
2023-03-29T00:30:15.864Z,100.00
2023-03-29T00:32:42.749Z,100.00
2023-03-29T00:35:09.788Z,100.00
2023-03-29T00:37:36.828Z,100.00
2023-03-29T00:40:10.972Z,100.00
2023-03-29T00:42:37.567Z,100.00
2023-03-29T00:45:25.508Z,100.00
2023-03-29T00:48:00.984Z,100.00
2023-03-29T00:50:41.783Z,100.00
2023-03-29T00:53:27.254Z,100.00
2023-03-29T00:55:59.528Z,100.00
2023-03-29T00:58:36.729Z,100.00
2023-03-29T01:01:10.846Z,100.00
2023-03-29T01:03:46.600Z,100.00
2023-03-29T01:06:16.004Z,100.00
2023-03-29T01:08:50.962Z,100.00
2023-03-29T01:11:22.379Z,100.00
2023-03-29T01:13:57.960Z,100.00
2023-03-29T01:16:26.470Z,100.00
2023-03-29T01:18:52.890Z,100.00
2023-03-29T01:21:25.007Z,100.00
2023-03-29T01:24:28.333Z,100.00
2023-03-29T01:27:10.698Z,100.00
2023-03-29T01:29:40.645Z,100.00
2023-03-29T01:32:16.298Z,100.00
2023-03-29T01:35:24.133Z,100.00
2023-03-29T01:38:01.265Z,100.00
2023-03-29T01:40:28.244Z,100.00
2023-03-29T01:43:06.131Z,100.00
2023-03-29T01:45:47.446Z,100.00
2023-03-29T01:48:28.228Z,100.00
2023-03-29T01:51:01.412Z,100.00
2023-03-29T01:53:45.307Z,100.00
2023-03-29T01:56:17.265Z,100.00
2023-03-29T01:58:51.143Z,100.00
2023-03-29T02:01:25.822Z,100.00
2023-03-29T02:03:55.802Z,100.00
2023-03-29T02:06:27.213Z,99.96
2023-03-29T02:08:55.724Z,99.38
2023-03-29T02:11:24.439Z,98.68
2023-03-29T02:13:50.975Z,98.45
2023-03-29T02:16:17.599Z,98.13
2023-03-29T02:18:47.761Z,97.96
2023-03-29T02:21:30.419Z,97.23
2023-03-29T02:24:02.046Z,96.57
2023-03-29T02:26:29.161Z,96.78
2023-03-29T02:28:56.029Z,96.49
2023-03-29T02:31:37.918Z,95.43
2023-03-29T02:34:13.228Z,96.33
2023-03-29T02:36:47.059Z,95.89
2023-03-29T02:39:15.704Z,95.78
2023-03-29T02:41:48.476Z,95.26
2023-03-29T02:44:20.368Z,95.40
2023-03-29T02:46:50.699Z,95.26
2023-03-29T02:49:17.128Z,95.32
2023-03-29T02:51:47.472Z,95.30
2023-03-29T02:54:19.396Z,96.01
2023-03-29T02:56:49.183Z,96.01
2023-03-29T02:59:19.351Z,97.20
2023-03-29T03:01:45.972Z,98.54
2023-03-29T03:04:13.072Z,97.91
2023-03-29T03:06:39.586Z,97.60
2023-03-29T03:09:06.692Z,96.86
2023-03-29T03:11:33.975Z,97.54
2023-03-29T03:14:00.875Z,97.83
2023-03-29T03:16:27.929Z,97.49
2023-03-29T03:18:55.492Z,97.08
2023-03-29T03:21:22.240Z,96.68
2023-03-29T03:23:49.283Z,96.23
2023-03-29T03:26:17.788Z,96.98
2023-03-29T03:28:45.572Z,97.59
2023-03-29T03:31:15.129Z,97.56
2023-03-29T03:33:41.764Z,97.90
2023-03-29T03:36:10.158Z,97.38
2023-03-29T03:38:38.387Z,97.71
2023-03-29T03:41:06.946Z,98.90
2023-03-29T03:43:34.169Z,99.11
2023-03-29T03:46:01.298Z,99.96
2023-03-29T03:48:28.413Z,98.65
2023-03-29T03:50:58.108Z,98.26
2023-03-29T03:53:27.133Z,98.19
2023-03-29T03:55:58.014Z,98.54
2023-03-29T03:58:24.477Z,99.35
2023-03-29T04:00:51.366Z,100.00
2023-03-29T04:03:18.601Z,100.00
2023-03-29T04:05:46.682Z,98.21
2023-03-29T04:08:14.779Z,98.36
2023-03-29T04:10:41.524Z,97.63
2023-03-29T04:13:08.305Z,97.27
2023-03-29T04:15:41.108Z,96.69
2023-03-29T04:18:07.737Z,96.84
2023-03-29T04:20:34.647Z,96.34
2023-03-29T04:23:01.706Z,97.09
2023-03-29T04:25:28.394Z,97.44
2023-03-29T04:27:54.898Z,96.36
2023-03-29T04:30:21.767Z,96.79
2023-03-29T04:32:48.167Z,96.60
2023-03-29T04:35:14.644Z,95.34
2023-03-29T04:37:41.712Z,94.82
2023-03-29T04:40:09.962Z,95.05
2023-03-29T04:42:37.634Z,94.43
2023-03-29T04:45:07.221Z,94.89
2023-03-29T04:47:36.257Z,94.57
2023-03-29T04:50:03.888Z,94.75
2023-03-29T04:52:33.025Z,94.11
2023-03-29T04:55:04.445Z,94.47
2023-03-29T04:57:31.424Z,95.03
2023-03-29T04:59:57.845Z,95.21
2023-03-29T05:02:24.352Z,95.53
2023-03-29T05:04:51.120Z,94.09
2023-03-29T05:07:18.188Z,94.68
2023-03-29T05:09:45.674Z,95.14
2023-03-29T05:12:12.072Z,97.76
2023-03-29T05:14:38.403Z,96.97
2023-03-29T05:17:05.102Z,97.79
2023-03-29T05:19:31.951Z,98.34
2023-03-29T05:21:59.053Z,98.38
2023-03-29T05:24:25.408Z,96.71
2023-03-29T05:26:51.978Z,96.05
2023-03-29T05:29:18.562Z,96.51
2023-03-29T05:31:44.933Z,95.32
2023-03-29T05:34:11.682Z,95.68
2023-03-29T05:36:39.076Z,95.07
2023-03-29T05:39:06.381Z,94.84
2023-03-29T05:41:33.617Z,94.63
2023-03-29T05:43:59.971Z,95.81
2023-03-29T05:46:26.924Z,96.70
2023-03-29T05:48:53.282Z,97.37
2023-03-29T05:51:24.044Z,96.41
2023-03-29T05:53:51.687Z,96.26
2023-03-29T05:56:18.925Z,95.76
2023-03-29T05:58:49.267Z,97.04
2023-03-29T06:01:18.014Z,96.28
2023-03-29T06:03:46.211Z,96.36
2023-03-29T06:06:16.040Z,96.40
2023-03-29T06:08:42.584Z,95.80
2023-03-29T06:11:11.026Z,96.78
2023-03-29T06:13:38.800Z,94.85
2023-03-29T06:16:06.231Z,95.93
2023-03-29T06:18:33.446Z,94.70
2023-03-29T06:21:02.036Z,94.64
2023-03-29T06:23:29.313Z,94.49
2023-03-29T06:25:56.468Z,96.82
2023-03-29T06:28:23.960Z,97.73
2023-03-29T06:30:50.635Z,97.79
2023-03-29T06:33:17.232Z,97.66
2023-03-29T06:35:46.012Z,96.17
2023-03-29T06:38:12.495Z,96.28
2023-03-29T06:40:38.994Z,96.01
2023-03-29T06:43:06.588Z,95.67
2023-03-29T06:45:36.283Z,96.14
2023-03-29T06:48:04.246Z,95.52
2023-03-29T06:50:31.191Z,94.05
2023-03-29T06:52:57.632Z,93.62
2023-03-29T06:55:25.894Z,93.77
2023-03-29T06:57:53.865Z,94.09
2023-03-29T07:00:29.829Z,93.94
2023-03-29T07:02:58.612Z,93.83
2023-03-29T07:05:28.167Z,94.32
2023-03-29T07:07:57.046Z,94.19
2023-03-29T07:10:32.177Z,95.11
2023-03-29T07:13:00.648Z,95.24
2023-03-29T07:15:28.706Z,94.12
2023-03-29T07:17:55.926Z,94.74
2023-03-29T07:20:23.328Z,92.98
2023-03-29T07:22:53.704Z,92.45
2023-03-29T07:25:22.353Z,92.12
2023-03-29T07:27:49.212Z,90.60
2023-03-29T07:30:18.339Z,89.52
2023-03-29T07:32:46.365Z,89.79
2023-03-29T07:35:14.899Z,88.90
2023-03-29T07:37:42.653Z,90.84
2023-03-29T07:40:12.787Z,91.72
2023-03-29T07:42:39.573Z,89.34
2023-03-29T07:45:08.425Z,89.48
2023-03-29T07:47:35.211Z,89.75
2023-03-29T07:50:02.420Z,90.22
2023-03-29T07:52:30.005Z,89.16
2023-03-29T07:54:56.922Z,88.67
2023-03-29T07:57:25.112Z,86.56
2023-03-29T07:59:53.996Z,88.79
2023-03-29T08:02:21.068Z,88.26
2023-03-29T08:04:47.726Z,88.65
2023-03-29T08:07:17.616Z,87.00
2023-03-29T08:09:45.463Z,88.63
2023-03-29T08:12:12.114Z,88.00
2023-03-29T08:14:38.520Z,87.00
2023-03-29T08:17:04.982Z,87.65
2023-03-29T08:19:31.542Z,87.22
2023-03-29T08:21:58.752Z,86.96
2023-03-29T08:24:25.297Z,86.05
2023-03-29T08:26:51.707Z,84.56
2023-03-29T08:29:18.037Z,84.18
2023-03-29T08:31:44.430Z,82.66
2023-03-29T08:34:10.901Z,81.99
2023-03-29T08:36:37.341Z,80.75
2023-03-29T08:39:03.770Z,79.37
2023-03-29T08:41:58.167Z,77.13
2023-03-29T08:44:50.736Z,79.33
2023-03-29T08:47:17.157Z,80.05
2023-03-29T08:49:48.568Z,79.55
2023-03-29T08:52:31.124Z,79.13
2023-03-29T08:54:59.743Z,80.17
2023-03-29T08:57:31.586Z,80.77
2023-03-29T09:00:01.884Z,80.97
2023-03-29T09:02:34.314Z,80.58
2023-03-29T09:05:14.857Z,80.46
2023-03-29T09:07:42.016Z,80.04
2023-03-29T09:10:15.240Z,80.46
2023-03-29T09:12:55.503Z,79.27
2023-03-29T09:15:27.613Z,77.84
2023-03-29T09:18:11.561Z,77.63
2023-03-29T09:20:56.997Z,76.39
2023-03-29T09:23:45.201Z,75.69
2023-03-29T09:26:19.737Z,75.67
2023-03-29T09:29:15.314Z,74.04
2023-03-29T09:31:44.149Z,75.13
2023-03-29T09:34:15.888Z,76.62
2023-03-29T09:36:52.356Z,77.71
2023-03-29T09:39:21.169Z,78.29
2023-03-29T09:41:54.592Z,77.52
2023-03-29T09:44:31.118Z,78.38
2023-03-29T09:47:12.430Z,78.28
2023-03-29T09:49:44.122Z,78.97
2023-03-29T09:52:14.044Z,78.98
2023-03-29T09:54:41.109Z,78.16
2023-03-29T09:57:12.047Z,79.57
2023-03-29T09:59:38.423Z,78.50
2023-03-29T10:02:11.042Z,78.88
2023-03-29T10:04:38.558Z,79.22
2023-03-29T10:07:07.687Z,77.89
2023-03-29T10:09:34.995Z,76.74
2023-03-29T10:12:06.595Z,77.67
2023-03-29T10:14:54.187Z,76.08
2023-03-29T10:17:25.722Z,77.39
2023-03-29T10:19:56.970Z,75.85
2023-03-29T10:22:26.384Z,75.03
2023-03-29T10:24:54.841Z,74.52
2023-03-29T10:27:27.233Z,74.11
2023-03-29T10:29:55.279Z,74.38
2023-03-29T10:32:21.550Z,74.08
2023-03-29T10:34:49.234Z,72.10
2023-03-29T10:37:19.385Z,72.09
2023-03-29T10:39:48.098Z,70.69
2023-03-29T10:42:23.663Z,72.91
2023-03-29T10:44:58.400Z,70.72
2023-03-29T10:47:25.929Z,70.47
2023-03-29T10:49:58.601Z,69.72
2023-03-29T10:52:25.740Z,71.40
2023-03-29T10:54:55.729Z,73.11
2023-03-29T10:58:01.614Z,68.65
2023-03-29T11:00:33.880Z,69.87
2023-03-29T11:03:09.723Z,68.93
2023-03-29T11:05:51.542Z,68.83
2023-03-29T11:08:36.573Z,70.35
2023-03-29T11:11:44.655Z,68.08
2023-03-29T11:14:46.102Z,70.87
2023-03-29T11:17:37.302Z,69.75
2023-03-29T11:20:12.886Z,69.83
2023-03-29T11:23:27.466Z,70.13
2023-03-29T11:26:19.796Z,68.85
2023-03-29T11:28:54.337Z,68.12
2023-03-29T11:31:46.387Z,68.25
2023-03-29T11:34:18.684Z,70.03
2023-03-29T11:37:11.028Z,68.51
2023-03-29T11:39:49.887Z,67.46
2023-03-29T11:42:24.732Z,68.41
2023-03-29T11:44:55.042Z,71.39
2023-03-29T11:47:26.509Z,70.22
2023-03-29T11:49:57.345Z,70.33
2023-03-29T11:52:30.464Z,70.44
2023-03-29T11:55:05.448Z,69.51
2023-03-29T11:57:39.871Z,70.07
2023-03-29T12:00:30.544Z,71.25
2023-03-29T12:02:56.896Z,68.56
2023-03-29T12:05:32.056Z,70.34
2023-03-29T12:08:21.967Z,70.23
2023-03-29T12:10:56.086Z,72.46
2023-03-29T12:13:37.828Z,72.10
2023-03-29T12:16:13.538Z,73.83
2023-03-29T12:18:45.319Z,73.99
2023-03-29T12:21:20.039Z,74.07
2023-03-29T12:23:47.713Z,73.20
2023-03-29T12:26:33.679Z,73.19
2023-03-29T12:29:05.365Z,73.12
2023-03-29T12:31:39.506Z,72.44
2023-03-29T12:34:24.541Z,71.58
2023-03-29T12:36:53.858Z,71.87
2023-03-29T12:39:21.504Z,72.25
2023-03-29T12:41:53.391Z,71.32
2023-03-29T12:44:23.857Z,71.21
2023-03-29T12:46:59.475Z,70.30
2023-03-29T12:49:35.434Z,71.95
2023-03-29T12:52:05.514Z,70.50
2023-03-29T12:54:32.969Z,71.25
2023-03-29T12:57:19.693Z,71.79
2023-03-29T12:59:48.522Z,70.07
2023-03-29T13:02:14.936Z,70.15
2023-03-29T13:04:53.931Z,70.91
2023-03-29T13:07:23.310Z,71.65
2023-03-29T13:10:17.620Z,71.46
2023-03-29T13:12:45.904Z,69.68
2023-03-29T13:15:15.580Z,70.21
2023-03-29T13:17:46.587Z,68.83
2023-03-29T13:20:37.397Z,69.15
2023-03-29T13:23:17.763Z,67.77
2023-03-29T13:25:53.578Z,69.35
2023-03-29T13:28:33.677Z,68.66
2023-03-29T13:31:18.153Z,69.22
2023-03-29T13:34:02.894Z,67.14
2023-03-29T13:36:51.081Z,68.94
2023-03-29T13:39:29.354Z,67.51
2023-03-29T13:42:37.295Z,70.04
2023-03-29T13:45:22.224Z,68.20
2023-03-29T13:48:02.417Z,69.37
2023-03-29T13:50:39.510Z,66.65
2023-03-29T13:53:45.633Z,66.50
2023-03-29T13:56:18.801Z,67.41
2023-03-29T13:58:49.881Z,66.83
2023-03-29T14:01:25.831Z,68.68
2023-03-29T14:03:53.522Z,65.44
2023-03-29T14:06:36.528Z,67.84
2023-03-29T14:09:08.677Z,67.02
2023-03-29T14:11:36.428Z,64.84
2023-03-29T14:14:08.212Z,67.21
2023-03-29T14:16:37.259Z,64.94
2023-03-29T14:19:11.678Z,65.71
2023-03-29T14:21:38.049Z,65.49
2023-03-29T14:24:04.481Z,66.65
2023-03-29T14:26:35.815Z,64.96
2023-03-29T14:29:02.791Z,64.30
2023-03-29T14:31:36.074Z,63.50
2023-03-29T14:34:05.907Z,65.13
2023-03-29T14:36:33.574Z,66.16
2023-03-29T14:39:04.104Z,64.99
2023-03-29T14:41:32.488Z,64.93
2023-03-29T14:44:00.148Z,63.00
2023-03-29T14:46:27.364Z,62.99
2023-03-29T14:48:54.827Z,62.12
2023-03-29T14:51:23.252Z,63.42
2023-03-29T14:53:49.892Z,65.43
2023-03-29T14:56:18.120Z,65.12
2023-03-29T14:58:46.553Z,63.12
2023-03-29T15:01:17.570Z,64.06
2023-03-29T15:03:49.782Z,64.41
2023-03-29T15:06:16.915Z,62.37
2023-03-29T15:08:57.701Z,63.07
2023-03-29T15:11:29.643Z,62.51
2023-03-29T15:14:15.812Z,64.58
2023-03-29T15:16:45.470Z,64.27
2023-03-29T15:19:20.343Z,65.41
2023-03-29T15:21:50.766Z,65.98
2023-03-29T15:24:27.444Z,66.23
2023-03-29T15:27:11.313Z,66.46
2023-03-29T15:29:46.286Z,66.78
2023-03-29T15:32:24.934Z,68.06
2023-03-29T15:34:59.447Z,69.12
2023-03-29T15:37:26.209Z,69.80
2023-03-29T15:39:52.631Z,70.47
2023-03-29T15:42:19.117Z,70.72
2023-03-29T15:44:45.859Z,70.34
2023-03-29T15:47:13.297Z,70.57
2023-03-29T15:49:39.906Z,70.44
2023-03-29T15:52:06.305Z,70.42
2023-03-29T15:54:33.681Z,70.25
2023-03-29T15:57:07.127Z,70.34
2023-03-29T15:59:34.788Z,70.77
2023-03-29T16:02:01.225Z,71.17
2023-03-29T16:04:27.606Z,72.50
2023-03-29T16:06:55.703Z,72.47
2023-03-29T16:09:22.748Z,72.31
2023-03-29T16:11:49.823Z,73.14
2023-03-29T16:14:27.836Z,72.30
2023-03-29T16:16:58.182Z,73.52
2023-03-29T16:19:25.674Z,73.58
2023-03-29T16:21:53.086Z,73.58
2023-03-29T16:24:25.024Z,73.51
2023-03-29T16:26:55.696Z,73.98
2023-03-29T16:29:22.906Z,74.31
2023-03-29T16:31:50.401Z,74.59
2023-03-29T16:34:18.654Z,74.58
2023-03-29T16:36:46.524Z,75.28
2023-03-29T16:39:13.619Z,74.88
2023-03-29T16:41:41.319Z,75.93
2023-03-29T16:44:07.820Z,76.54
2023-03-29T16:46:34.605Z,77.04
2023-03-29T16:49:01.506Z,78.12
2023-03-29T16:51:27.858Z,79.11
2023-03-29T16:53:54.373Z,79.37
2023-03-29T16:56:20.703Z,80.35
2023-03-29T16:58:47.447Z,81.23
2023-03-29T17:01:15.932Z,81.57
2023-03-29T17:03:43.141Z,82.07
2023-03-29T17:06:11.056Z,83.35
2023-03-29T17:08:38.593Z,84.20
2023-03-29T17:11:06.796Z,85.02
2023-03-29T17:13:33.381Z,85.80
2023-03-29T17:16:00.131Z,86.04
2023-03-29T17:18:27.666Z,86.98
2023-03-29T17:20:58.416Z,87.94
2023-03-29T17:23:25.439Z,88.70
2023-03-29T17:25:53.969Z,89.98
2023-03-29T17:28:20.502Z,90.59
2023-03-29T17:30:46.870Z,89.60
2023-03-29T17:33:13.604Z,89.88
2023-03-29T17:35:46.460Z,89.52
2023-03-29T17:38:12.824Z,89.55
2023-03-29T17:40:39.233Z,89.76
2023-03-29T17:43:05.658Z,90.17
2023-03-29T17:45:32.241Z,90.85
2023-03-29T17:47:58.623Z,90.90
2023-03-29T17:50:25.604Z,91.31
2023-03-29T17:52:51.944Z,91.29
2023-03-29T17:55:18.675Z,91.74
2023-03-29T17:57:45.110Z,92.42
2023-03-29T18:00:13.680Z,92.70
2023-03-29T18:02:41.403Z,93.01
2023-03-29T18:05:09.386Z,92.71
2023-03-29T18:07:36.728Z,91.32
2023-03-29T18:10:03.892Z,92.80
2023-03-29T18:12:30.349Z,93.56
2023-03-29T18:14:56.958Z,93.13
2023-03-29T18:17:24.452Z,93.86
2023-03-29T18:19:51.416Z,94.04
2023-03-29T18:22:18.541Z,94.10
2023-03-29T18:24:44.980Z,93.59
2023-03-29T18:27:12.190Z,94.71
2023-03-29T18:29:39.018Z,93.97
2023-03-29T18:32:06.018Z,94.48
2023-03-29T18:34:33.347Z,94.85
2023-03-29T18:36:59.677Z,95.31
2023-03-29T18:39:27.218Z,95.63
2023-03-29T18:41:53.683Z,95.02
2023-03-29T18:44:21.795Z,94.49
2023-03-29T18:46:48.317Z,94.39
2023-03-29T18:49:14.680Z,95.26
2023-03-29T18:51:42.077Z,95.21
2023-03-29T18:54:08.946Z,94.98
2023-03-29T18:56:35.870Z,95.17
2023-03-29T18:59:06.037Z,95.71
2023-03-29T19:01:33.158Z,96.31
2023-03-29T19:03:59.593Z,94.12
2023-03-29T19:06:26.378Z,94.84
2023-03-29T19:08:53.982Z,93.86
2023-03-29T19:11:20.374Z,93.97
2023-03-29T19:13:50.078Z,94.60
2023-03-29T19:16:17.194Z,95.29
2023-03-29T19:18:43.642Z,95.07
2023-03-29T19:21:10.045Z,94.87
2023-03-29T19:23:36.544Z,95.02
2023-03-29T19:26:05.475Z,95.16
2023-03-29T19:28:33.428Z,95.16
2023-03-29T19:31:01.360Z,95.27
2023-03-29T19:33:29.095Z,95.45
2023-03-29T19:35:55.616Z,95.11
2023-03-29T19:38:22.352Z,93.38
2023-03-29T19:40:50.741Z,91.75
2023-03-29T19:43:17.964Z,93.69
2023-03-29T19:45:45.515Z,94.18
2023-03-29T19:48:21.142Z,94.31
2023-03-29T19:50:48.527Z,94.29
2023-03-29T19:53:14.962Z,95.66
2023-03-29T19:55:42.815Z,95.43
2023-03-29T19:58:09.389Z,94.00
2023-03-29T20:00:36.027Z,94.96
2023-03-29T20:03:03.022Z,94.40
2023-03-29T20:05:29.417Z,95.01
2023-03-29T20:07:56.082Z,93.49
2023-03-29T20:10:22.525Z,94.58
2023-03-29T20:12:49.224Z,93.75
2023-03-29T20:15:15.724Z,94.24
2023-03-29T20:17:42.184Z,95.60
2023-03-29T20:20:10.196Z,96.11
2023-03-29T20:22:38.078Z,95.19
2023-03-29T20:25:05.278Z,94.78
2023-03-29T20:27:31.668Z,95.59
2023-03-29T20:29:58.031Z,96.14
2023-03-29T20:32:24.378Z,96.49
2023-03-29T20:34:50.887Z,96.48
2023-03-29T20:37:17.232Z,96.18
2023-03-29T20:39:43.658Z,96.36
2023-03-29T20:42:10.134Z,96.15
2023-03-29T20:44:36.591Z,95.94
2023-03-29T20:47:07.899Z,95.62
2023-03-29T20:49:39.112Z,94.35
2023-03-29T20:52:07.967Z,94.71
2023-03-29T20:54:36.945Z,94.20
2023-03-29T20:57:04.708Z,93.69
2023-03-29T20:59:31.284Z,94.18
2023-03-29T21:01:58.199Z,94.01
2023-03-29T21:04:24.790Z,92.51
2023-03-29T21:06:51.331Z,92.66
2023-03-29T21:09:19.189Z,91.42
2023-03-29T21:11:45.630Z,91.76
2023-03-29T21:14:11.979Z,90.98
2023-03-29T21:16:41.601Z,91.72
2023-03-29T21:19:09.366Z,91.10
2023-03-29T21:21:35.966Z,91.44
2023-03-29T21:24:03.545Z,91.89
2023-03-29T21:26:30.078Z,90.75
2023-03-29T21:28:56.521Z,90.77
2023-03-29T21:31:22.999Z,90.16
2023-03-29T21:33:49.526Z,90.32
2023-03-29T21:36:16.116Z,90.63
2023-03-29T21:38:42.521Z,91.00
2023-03-29T21:41:10.643Z,91.80
2023-03-29T21:43:36.988Z,92.04
2023-03-29T21:46:03.671Z,92.89
2023-03-29T21:48:30.832Z,92.75
2023-03-29T21:50:57.374Z,93.37
2023-03-29T21:53:24.728Z,93.30
2023-03-29T21:55:51.742Z,93.40
2023-03-29T21:58:18.802Z,93.18
2023-03-29T22:00:46.661Z,92.71
2023-03-29T22:03:14.909Z,93.39
2023-03-29T22:05:41.875Z,92.75
2023-03-29T22:08:10.519Z,90.44
2023-03-29T22:10:41.114Z,90.26
2023-03-29T22:13:08.668Z,90.60
2023-03-29T22:15:35.567Z,90.63
2023-03-29T22:18:03.120Z,89.68
2023-03-29T22:20:29.570Z,90.35
2023-03-29T22:22:55.929Z,89.82
2023-03-29T22:25:23.167Z,89.91
2023-03-29T22:27:49.874Z,90.02
2023-03-29T22:30:17.249Z,88.99
2023-03-29T22:32:43.706Z,87.84
2023-03-29T22:35:10.550Z,88.42
2023-03-29T22:37:41.871Z,86.59
2023-03-29T22:40:10.292Z,86.99
2023-03-29T22:42:36.862Z,87.15
2023-03-29T22:45:03.909Z,87.58
2023-03-29T22:47:30.317Z,86.40
2023-03-29T22:49:56.663Z,86.20
2023-03-29T22:52:23.017Z,86.27
2023-03-29T22:54:49.362Z,86.23
2023-03-29T22:57:15.761Z,86.25
2023-03-29T22:59:42.217Z,85.72
2023-03-29T23:02:08.571Z,86.53
2023-03-29T23:04:36.498Z,85.48
2023-03-29T23:07:02.929Z,86.59
2023-03-29T23:09:29.265Z,86.56
2023-03-29T23:11:55.671Z,85.64
2023-03-29T23:14:22.675Z,85.39
2023-03-29T23:16:50.373Z,85.30
2023-03-29T23:19:16.708Z,86.57
2023-03-29T23:21:43.105Z,86.40
2023-03-29T23:24:09.493Z,86.73
2023-03-29T23:26:37.509Z,85.92
2023-03-29T23:29:04.041Z,86.39
2023-03-29T23:31:30.522Z,86.57
2023-03-29T23:33:56.916Z,87.01
2023-03-29T23:36:23.372Z,86.97
2023-03-29T23:38:49.996Z,88.18
2023-03-29T23:41:17.654Z,88.58
2023-03-29T23:43:46.917Z,86.48
2023-03-29T23:46:15.781Z,87.33
2023-03-29T23:48:47.076Z,87.50
2023-03-29T23:51:13.528Z,86.85
2023-03-29T23:53:40.300Z,86.50
2023-03-29T23:56:07.683Z,86.82
2023-03-29T23:58:36.827Z,87.22
